Jesupolis, Brazil
Current Conditions -  °F | °C
As of 10:00 AM on Wednesday 28 Jan 2015 (Local Time) from SBAN Reporting Station
Few Clouds Few Clouds  
Wind Chill: 73°   Ceiling: Unl
Heat Index: 73°   Visibility: 6mi
Dew Point: 64°   Wind: 7mph
Humidity: 73%   Direction: 60°ENE
Pressure: 30.15"   Gusts: NA
Location:  15.95°S, 49.37°W
Report Text: SBAN 281200Z 06006KT 9999 FEW030 23/18 Q1021
Loading
Personal Weather Stations






























Interactive Weather Map New forecast layout! Learn more

10-Day Weather Forecast

Advertisements
Track Severe Weather on mobile